Time;durP1;ratioP1;P1;durP2;ratioP2;P2;SDS_P1;SDS_P2;PMS_P1;PMS_P2;Temp;Humidity;BMP_temperature;BMP_pressure;BME280_temperature;BME280_humidity;BME280_pressure;Samples;Min_cycle;Max_cycle;Signal;HPM_P1;HPM_P2
2022/07/26 00:00:46;;;;;;;11.80;4.20;;;;;;;16.78;77.42;101217.50;5094263;28;20522;-45
2022/07/26 00:03:13;;;;;;;13.43;3.60;;;;;;;16.77;77.47;101217.47;5094837;28;20494;-46
2022/07/26 00:05:38;;;;;;;13.65;3.53;;;;;;;16.76;77.81;101221.81;5094081;28;20103;-46
2022/07/26 00:08:11;;;;;;;16.45;4.10;;;;;;;16.77;77.67;101217.47;5094155;28;20111;-46
2022/07/26 00:10:48;;;;;;;13.05;3.58;;;;;;;16.79;77.48;101223.56;5094325;28;20382;-44
2022/07/26 00:13:16;;;;;;;15.38;4.18;;;;;;;16.76;77.69;101224.41;5094046;28;20056;-48
2022/07/26 00:15:42;;;;;;;14.23;3.65;;;;;;;16.73;77.92;101231.31;5094286;28;20047;-46
2022/07/26 00:18:07;;;;;;;13.25;3.55;;;;;;;16.73;78.30;101226.09;5094338;28;20464;-47
2022/07/26 00:20:32;;;;;;;13.60;4.28;;;;;;;16.68;78.32;101222.56;5093775;28;20108;-44
2022/07/26 00:22:58;;;;;;;13.52;3.95;;;;;;;16.70;78.43;101221.72;5093822;28;20427;-46
2022/07/26 00:25:23;;;;;;;13.70;4.18;;;;;;;16.67;78.45;101218.22;5094075;28;20035;-45
2022/07/26 00:27:48;;;;;;;11.50;3.30;;;;;;;16.68;78.48;101219.97;5093065;28;20102;-44
2022/07/26 00:30:14;;;;;;;13.15;3.78;;;;;;;16.63;78.81;101227.75;5094309;28;20024;-48
2022/07/26 00:32:39;;;;;;;12.60;3.60;;;;;;;16.64;78.85;101226.88;5094102;28;20024;-46
2022/07/26 00:35:05;;;;;;;10.77;3.83;;;;;;;16.60;79.04;101222.50;5093088;28;20062;-45
2022/07/26 00:37:31;;;;;;;13.65;4.10;;;;;;;16.65;79.16;101232.97;5094004;28;20115;-45
2022/07/26 00:39:56;;;;;;;14.07;3.80;;;;;;;16.61;79.27;101232.91;5092672;28;20044;-44
2022/07/26 00:42:21;;;;;;;18.20;4.55;;;;;;;16.63;79.23;101230.34;5093569;28;20081;-45
2022/07/26 00:44:47;;;;;;;16.25;4.72;;;;;;;16.63;79.41;101236.41;5093765;28;20024;-44
2022/07/26 00:47:13;;;;;;;13.48;4.03;;;;;;;16.63;79.42;101230.34;5093115;28;20031;-45
2022/07/26 00:49:39;;;;;;;14.68;4.35;;;;;;;16.60;79.54;101233.78;5093035;28;20050;-47
2022/07/26 00:52:06;;;;;;;16.83;4.20;;;;;;;16.62;79.86;101228.59;5093421;28;20566;-44
2022/07/26 00:54:32;;;;;;;11.77;3.63;;;;;;;16.62;79.63;101233.81;5093046;28;20494;-48
2022/07/26 00:56:57;;;;;;;14.02;4.13;;;;;;;16.62;79.62;101234.66;5092970;28;20040;-45
2022/07/26 00:59:23;;;;;;;16.10;4.05;;;;;;;16.63;79.46;101231.22;5093734;28;20103;-44
2022/07/26 01:01:48;;;;;;;15.57;3.92;;;;;;;16.62;79.58;101228.59;5092762;28;20024;-44
2022/07/26 01:04:14;;;;;;;12.52;3.85;;;;;;;16.63;79.75;101230.34;5093413;28;20131;-45
2022/07/26 01:06:40;;;;;;;14.60;3.78;;;;;;;16.61;79.64;101226.84;5093516;28;20463;-47
2022/07/26 01:09:06;;;;;;;13.85;4.30;;;;;;;16.60;79.75;101226.00;5092614;28;20414;-49
2022/07/26 01:11:31;;;;;;;15.90;4.10;;;;;;;16.58;80.11;101226.84;5093186;28;20031;-44
2022/07/26 01:13:56;;;;;;;13.68;3.78;;;;;;;16.61;79.97;101222.50;5093227;28;20498;-46
2022/07/26 01:16:22;;;;;;;16.10;4.00;;;;;;;16.59;80.32;101225.94;5092885;28;20081;-44
2022/07/26 01:18:48;;;;;;;19.75;4.45;;;;;;;16.56;80.09;101228.53;5092866;28;20074;-47
2022/07/26 01:21:14;;;;;;;16.90;4.43;;;;;;;16.56;80.49;101218.97;5093236;28;20506;-45
2022/07/26 01:23:40;;;;;;;12.27;3.72;;;;;;;16.54;80.70;101214.63;5092533;28;20020;-44
2022/07/26 01:26:05;;;;;;;15.93;4.32;;;;;;;16.49;81.28;101222.41;5092742;28;20077;-44
2022/07/26 01:28:36;;;;;;;15.07;3.95;;;;;;;16.48;82.42;101219.78;5093351;28;20405;-45
2022/07/26 01:31:02;;;;;;;15.73;4.28;;;;;;;16.41;82.90;101217.09;5092364;28;20038;-47
2022/07/26 01:33:27;;;;;;;15.48;4.07;;;;;;;16.33;82.82;101208.31;5093262;28;20027;-44
2022/07/26 01:35:53;;;;;;;17.00;4.38;;;;;;;16.32;83.15;101223.91;5092835;28;20020;-44
2022/07/26 01:38:18;;;;;;;15.40;4.47;;;;;;;16.32;83.08;101218.72;5092247;28;20036;-44
2022/07/26 01:40:43;;;;;;;12.23;4.35;;;;;;;16.31;83.24;101217.84;5092652;28;20097;-44
2022/07/26 01:43:09;;;;;;;18.85;4.93;;;;;;;16.34;83.39;101215.28;5092985;28;20475;-45
2022/07/26 01:45:34;;;;;;;20.10;4.70;;;;;;;16.35;83.49;101227.44;5092266;28;20028;-48
2022/07/26 01:48:00;;;;;;;21.05;5.63;;;;;;;16.37;83.62;101223.13;5092711;28;20027;-44
2022/07/26 01:50:25;;;;;;;21.25;4.93;;;;;;;16.39;83.41;101220.53;5092409;28;20028;-46
2022/07/26 01:52:51;;;;;;;22.15;4.70;;;;;;;16.44;83.42;101230.13;5092544;28;20047;-46
2022/07/26 01:55:16;;;;;;;20.15;4.88;;;;;;;16.45;83.63;101231.03;5093117;28;20477;-44
2022/07/26 01:57:44;;;;;;;15.73;4.82;;;;;;;16.42;83.56;101231.88;5092383;28;20047;-44
2022/07/26 02:00:10;;;;;;;14.35;4.40;;;;;;;16.49;83.53;101230.19;5092495;28;20024;-44
2022/07/26 02:02:36;;;;;;;16.80;4.40;;;;;;;16.46;83.92;101224.94;5095771;28;20020;-48
2022/07/26 02:05:02;;;;;;;18.85;5.28;;;;;;;16.45;84.10;101223.22;5096238;28;20028;-45
2022/07/26 02:07:30;;;;;;;18.80;4.90;;;;;;;16.48;84.19;101232.78;5096551;28;20359;-45
2022/07/26 02:09:56;;;;;;;19.30;5.28;;;;;;;16.46;84.42;101231.03;5096742;28;20032;-44
2022/07/26 02:12:21;;;;;;;15.98;5.00;;;;;;;16.49;84.74;101237.13;5096360;28;20467;-48
2022/07/26 02:14:47;;;;;;;19.73;5.18;;;;;;;16.48;84.57;101232.78;5096326;28;20055;-45
2022/07/26 02:17:12;;;;;;;18.42;5.63;;;;;;;16.46;84.73;101232.75;5096777;28;20038;-45
2022/07/26 02:19:37;;;;;;;17.70;5.72;;;;;;;16.44;85.36;101230.13;5095871;28;20027;-46
2022/07/26 02:22:03;;;;;;;22.20;5.88;;;;;;;16.45;85.69;101231.88;5096211;28;20102;-46
2022/07/26 02:24:28;;;;;;;25.92;6.60;;;;;;;16.46;86.16;101232.75;5096586;28;20371;-45
2022/07/26 02:26:55;;;;;;;22.95;5.70;;;;;;;16.45;85.93;101226.69;5095845;28;20032;-48
2022/07/26 02:29:20;;;;;;;21.02;5.72;;;;;;;16.43;86.45;101233.59;5096399;28;20374;-44
2022/07/26 02:31:45;;;;;;;20.83;5.65;;;;;;;16.48;86.41;101235.38;5096223;28;20058;-46
2022/07/26 02:34:11;;;;;;;24.63;6.60;;;;;;;16.46;86.74;101236.25;5095958;28;20024;-48
2022/07/26 02:36:36;;;;;;;24.15;6.30;;;;;;;16.44;86.62;101243.13;5096147;28;20024;-44
2022/07/26 02:39:02;;;;;;;15.40;5.65;;;;;;;16.46;86.92;101241.44;5096074;28;20020;-44
2022/07/26 02:41:27;;;;;;;22.08;5.93;;;;;;;16.46;86.82;101245.75;5095574;28;20064;-45
2022/07/26 02:43:53;;;;;;;22.10;6.60;;;;;;;16.42;87.42;101241.38;5096077;28;20065;-45
2022/07/26 02:46:18;;;;;;;30.15;6.95;;;;;;;16.40;87.21;101248.31;5096220;28;20094;-45
2022/07/26 02:48:43;;;;;;;26.42;7.75;;;;;;;16.35;87.92;101240.44;5095257;28;20043;-44
2022/07/26 02:51:09;;;;;;;27.48;7.07;;;;;;;16.36;88.27;101251.69;5095909;28;20425;-49
2022/07/26 02:53:34;;;;;;;27.65;7.80;;;;;;;16.33;88.34;101252.53;5095377;28;20486;-45
2022/07/26 02:55:59;;;;;;;25.80;6.90;;;;;;;16.29;88.51;101251.66;5095410;28;20028;-45
2022/07/26 02:58:25;;;;;;;21.98;7.20;;;;;;;16.31;88.62;101251.66;5096006;28;20032;-44
2022/07/26 03:00:51;;;;;;;25.17;7.45;;;;;;;16.30;88.93;101255.97;5095023;28;20035;-46
2022/07/26 03:03:16;;;;;;;26.33;7.50;;;;;;;16.31;89.12;101256.88;5095673;28;20024;-45
2022/07/26 03:05:41;;;;;;;21.00;7.30;;;;;;;16.30;88.91;101255.97;5095520;28;20020;-45
2022/07/26 03:08:07;;;;;;;34.80;7.68;;;;;;;16.27;89.18;101258.53;5095038;28;20028;-44
2022/07/26 03:10:32;;;;;;;20.27;7.03;;;;;;;16.26;89.48;101253.34;5095646;28;20024;-45
2022/07/26 03:12:58;;;;;;;29.73;7.00;;;;;;;16.26;89.55;101261.13;5095050;28;20179;-46
2022/07/26 03:15:23;;;;;;;20.85;7.03;;;;;;;16.30;89.51;101255.13;5095202;28;20024;-44
2022/07/26 03:17:48;;;;;;;31.95;8.52;;;;;;;16.26;89.84;101262.00;5095079;28;20024;-44
2022/07/26 03:20:14;;;;;;;30.27;8.27;;;;;;;16.28;89.93;101264.59;5095335;28;20078;-46
2022/07/26 03:22:39;;;;;;;26.38;7.82;;;;;;;16.29;90.37;101274.16;5094696;28;20367;-45
2022/07/26 03:25:05;;;;;;;29.63;8.70;;;;;;;16.30;90.09;101275.91;5095093;28;20034;-45
2022/07/26 03:27:30;;;;;;;27.98;7.82;;;;;;;16.31;90.26;101280.28;5095458;28;20023;-44
2022/07/26 03:29:56;;;;;;;38.15;9.60;;;;;;;16.31;90.35;101275.06;5094564;28;20063;-45
2022/07/26 03:32:21;;;;;;;27.80;8.32;;;;;;;16.32;90.59;101276.81;5095075;28;20077;-44
2022/07/26 03:34:47;;;;;;;27.33;8.80;;;;;;;16.34;90.68;101275.09;5095028;28;20352;-44
2022/07/26 03:37:12;;;;;;;21.88;7.75;;;;;;;16.34;90.45;101275.09;5094308;28;20024;-44
2022/07/26 03:39:37;;;;;;;30.33;9.30;;;;;;;16.30;91.08;101286.31;5094797;28;20048;-46
2022/07/26 03:42:03;;;;;;;29.10;8.93;;;;;;;16.30;91.18;101291.53;5094846;28;20069;-46
2022/07/26 03:44:28;;;;;;;32.33;9.15;;;;;;;16.24;91.48;101288.84;5094307;28;20016;-44
2022/07/26 03:46:54;;;;;;;28.80;8.75;;;;;;;16.19;91.96;101296.59;5094748;28;20482;-45
2022/07/26 03:49:19;;;;;;;36.65;8.88;;;;;;;16.20;91.99;101302.66;5094928;28;20031;-44
2022/07/26 03:51:44;;;;;;;33.63;8.45;;;;;;;16.18;92.29;101296.53;5093841;28;20070;-45
2022/07/26 03:54:10;;;;;;;28.95;9.20;;;;;;;16.18;92.29;101291.34;5094774;28;20020;-45
2022/07/26 03:56:35;;;;;;;30.08;9.55;;;;;;;16.18;92.19;101288.75;5094909;28;20028;-47
2022/07/26 03:59:04;;;;;;;35.08;9.88;;;;;;;16.16;92.53;101290.47;5093604;28;20025;-44
2022/07/26 04:01:30;;;;;;;30.60;9.13;;;;;;;16.17;92.92;101297.44;5094601;28;20489;-44
2022/07/26 04:03:55;;;;;;;33.92;9.23;;;;;;;16.19;92.89;101295.69;5093795;28;20019;-44
2022/07/26 04:06:21;;;;;;;29.10;9.60;;;;;;;16.21;92.65;101304.41;5094327;28;20028;-45
2022/07/26 04:08:46;;;;;;;29.65;8.43;;;;;;;16.20;92.67;101303.53;5094463;28;20103;-48
2022/07/26 04:11:12;;;;;;;33.72;9.70;;;;;;;16.23;92.57;101303.59;5093825;28;20115;-46
2022/07/26 04:13:37;;;;;;;25.13;8.75;;;;;;;16.25;92.75;101306.19;5094389;28;20501;-44
2022/07/26 04:16:03;;;;;;;28.42;9.50;;;;;;;16.24;92.66;101299.25;5094160;28;20023;-44
2022/07/26 04:18:29;;;;;;;23.77;9.05;;;;;;;16.27;92.84;101294.97;5093780;28;20479;-44
2022/07/26 04:20:55;;;;;;;28.30;8.65;;;;;;;16.28;92.75;101301.91;5093680;28;20031;-44
2022/07/26 04:23:20;;;;;;;30.75;9.13;;;;;;;16.34;92.41;101306.31;5094155;28;20024;-46
2022/07/26 04:25:46;;;;;;;30.58;9.05;;;;;;;16.36;92.66;101304.63;5092987;28;20093;-45
2022/07/26 04:28:11;;;;;;;31.65;10.23;;;;;;;16.34;92.43;101306.31;5094019;28;20055;-45
2022/07/26 04:30:37;;;;;;;28.58;9.55;;;;;;;16.34;92.58;101310.66;5094086;28;20367;-44
2022/07/26 04:33:03;;;;;;;26.40;9.75;;;;;;;16.37;92.38;101314.19;5093399;28;20073;-49
2022/07/26 04:35:29;;;;;;;33.42;10.00;;;;;;;16.40;92.49;101313.34;5093690;28;20099;-44
2022/07/26 04:37:54;;;;;;;27.63;9.27;;;;;;;16.41;91.92;101323.75;5093949;28;20547;-44
2022/07/26 04:40:21;;;;;;;31.10;8.57;;;;;;;16.42;92.17;101322.03;5092966;28;20516;-44
2022/07/26 04:42:47;;;;;;;30.13;9.15;;;;;;;16.42;91.87;101320.31;5093645;28;20097;-46
2022/07/26 04:45:13;;;;;;;25.08;9.07;;;;;;;16.43;92.04;101315.97;5093955;28;20032;-46
2022/07/26 04:47:48;;;;;;;33.70;9.75;;;;;;;16.44;92.02;101323.78;5092807;28;20375;-45
2022/07/26 04:50:13;;;;;;;26.90;9.13;;;;;;;16.42;92.20;101317.72;5093732;28;20028;-44
2022/07/26 04:52:39;;;;;;;33.38;8.70;;;;;;;16.38;92.25;101317.63;5093779;28;20028;-44
2022/07/26 04:55:08;;;;;;;31.63;10.13;;;;;;;16.30;92.23;101320.13;5092817;28;20624;-45
2022/07/26 04:57:34;;;;;;;25.85;9.30;;;;;;;16.31;92.49;101319.28;5093652;28;20127;-44
2022/07/26 04:59:59;;;;;;;28.10;8.75;;;;;;;16.30;92.55;101322.75;5093095;28;20445;-45
2022/07/26 05:02:25;;;;;;;32.95;9.38;;;;;;;16.27;93.23;101331.38;5092669;28;20031;-45
2022/07/26 05:04:50;;;;;;;27.60;8.80;;;;;;;16.24;93.15;101330.44;5093227;28;20031;-46
2022/07/26 05:07:15;;;;;;;32.88;9.77;;;;;;;16.23;93.24;101329.59;5092797;28;20039;-44
2022/07/26 05:09:41;;;;;;;30.25;9.60;;;;;;;16.27;93.45;101340.91;5093241;28;20501;-46
2022/07/26 05:12:07;;;;;;;33.30;10.52;;;;;;;16.24;93.48;101330.44;5093336;28;20035;-45
2022/07/26 05:14:32;;;;;;;26.38;9.43;;;;;;;16.29;93.31;101334.00;5092743;28;20078;-46
2022/07/26 05:16:57;;;;;;;29.45;9.80;;;;;;;16.30;93.53;101335.75;5092789;28;20111;-46
2022/07/26 05:19:22;;;;;;;32.15;9.43;;;;;;;16.33;93.37;101346.19;5093103;28;20528;-48
2022/07/26 05:21:48;;;;;;;26.70;9.68;;;;;;;16.35;93.57;101344.47;5092564;28;20055;-47
2022/07/26 05:24:13;;;;;;;24.63;8.90;;;;;;;16.40;93.41;101352.38;5093164;28;20024;-44
2022/07/26 05:26:38;;;;;;;27.50;9.27;;;;;;;16.45;93.59;101350.69;5093169;28;20171;-44
2022/07/26 05:29:04;;;;;;;25.58;10.02;;;;;;;16.50;93.35;101356.84;5092556;28;20035;-46
2022/07/26 05:31:29;;;;;;;27.60;9.25;;;;;;;16.53;93.67;101359.47;5093026;28;20032;-45
2022/07/26 05:33:54;;;;;;;30.15;9.35;;;;;;;16.56;93.35;101363.84;5092623;28;20032;-45
2022/07/26 05:36:20;;;;;;;31.35;10.65;;;;;;;16.58;93.32;101356.94;5092530;28;20024;-44
2022/07/26 05:38:46;;;;;;;30.58;10.27;;;;;;;16.62;93.02;101363.91;5092656;28;20024;-44
2022/07/26 05:41:11;;;;;;;29.80;10.82;;;;;;;16.66;92.90;101355.28;5092783;28;20055;-46
2022/07/26 05:43:36;;;;;;;27.08;11.02;;;;;;;16.70;92.30;101366.63;5092111;28;20028;-45
2022/07/26 05:46:02;;;;;;;23.90;10.35;;;;;;;16.75;91.95;101364.94;5092753;28;20021;-45
2022/07/26 05:48:28;;;;;;;22.35;9.55;;;;;;;16.80;91.41;101365.88;5092874;28;20042;-45
2022/07/26 05:50:53;;;;;;;27.67;10.13;;;;;;;16.85;90.50;101371.13;5092027;28;20391;-45
2022/07/26 05:53:18;;;;;;;35.45;10.98;;;;;;;16.92;91.12;101373.00;5093068;28;20024;-45
2022/07/26 05:55:44;;;;;;;28.92;9.50;;;;;;;16.97;90.41;101365.25;5092923;28;20059;-44
2022/07/26 05:58:09;;;;;;;28.63;10.00;;;;;;;17.01;89.83;101367.88;5091916;28;20059;-46
2022/07/26 06:00:34;;;;;;;24.77;9.90;;;;;;;17.08;89.74;101374.94;5092671;28;20390;-44
2022/07/26 06:03:20;;;;;;;28.45;10.63;;;;;;;17.17;89.70;101386.28;5092530;28;20082;-46
2022/07/26 06:05:46;;;;;;;31.38;10.00;;;;;;;17.24;89.66;101377.69;5091685;28;20395;-45
2022/07/26 06:08:11;;;;;;;19.45;9.63;;;;;;;17.30;89.01;101379.47;5092907;28;20024;-46
2022/07/26 06:10:37;;;;;;;28.15;10.15;;;;;;;17.34;88.27;101382.16;5092145;28;20053;-48
2022/07/26 06:13:02;;;;;;;29.20;10.25;;;;;;;17.41;88.25;101383.06;5092386;28;20348;-45
2022/07/26 06:15:27;;;;;;;27.58;10.73;;;;;;;17.46;87.69;101385.75;5092536;28;20024;-46
2022/07/26 06:17:52;;;;;;;27.30;10.27;;;;;;;17.52;87.79;101381.44;5091727;28;20036;-44
2022/07/26 06:20:18;;;;;;;23.98;10.18;;;;;;;17.54;86.47;101381.47;5092452;28;20475;-44
2022/07/26 06:22:43;;;;;;;23.30;10.65;;;;;;;17.57;86.63;101387.56;5092660;28;20020;-45
2022/07/26 06:25:08;;;;;;;27.05;9.98;;;;;;;17.64;85.82;101393.72;5091816;28;20020;-45
2022/07/26 06:27:34;;;;;;;24.10;10.02;;;;;;;17.67;85.49;101398.09;5092417;28;20040;-44
2022/07/26 06:29:59;;;;;;;25.27;9.45;;;;;;;17.72;85.14;101399.00;5092293;28;20024;-46
2022/07/26 06:32:24;;;;;;;25.33;10.73;;;;;;;17.80;85.38;101399.06;5092298;28;20024;-47
2022/07/26 06:34:49;;;;;;;23.65;9.38;;;;;;;17.87;84.72;101396.53;5092226;28;20401;-44
2022/07/26 06:37:15;;;;;;;26.05;9.38;;;;;;;17.94;84.51;101389.66;5092378;28;20032;-45
2022/07/26 06:39:40;;;;;;;26.35;9.68;;;;;;;18.04;84.19;101401.91;5091487;28;20048;-46
2022/07/26 06:42:05;;;;;;;27.67;8.80;;;;;;;18.12;83.54;101394.13;5092319;28;20115;-47
2022/07/26 06:44:30;;;;;;;24.52;8.65;;;;;;;18.20;81.22;101396.78;5092384;28;20429;-45
2022/07/26 06:46:56;;;;;;;20.63;8.43;;;;;;;18.26;80.88;101404.66;5091765;28;20034;-45
2022/07/26 06:49:21;;;;;;;24.45;8.43;;;;;;;18.33;79.94;101406.44;5096208;28;20028;-45
2022/07/26 06:51:46;;;;;;;19.83;8.50;;;;;;;18.47;79.24;101406.53;5095912;28;20364;-45
2022/07/26 06:54:11;;;;;;;20.52;8.38;;;;;;;18.70;78.25;101408.41;5095162;28;20028;-46
2022/07/26 06:56:37;;;;;;;23.35;8.20;;;;;;;18.88;77.35;101407.63;5096094;28;20031;-45
2022/07/26 06:59:02;;;;;;;22.48;7.88;;;;;;;18.91;75.35;101412.88;5095799;28;20092;-46
2022/07/26 07:01:27;;;;;;;26.67;8.18;;;;;;;18.93;75.99;101411.16;5094860;28;20047;-44
2022/07/26 07:03:52;;;;;;;18.77;7.13;;;;;;;18.88;75.12;101418.06;5095767;28;20099;-45
2022/07/26 07:06:18;;;;;;;15.07;6.82;;;;;;;18.95;75.17;101421.59;5095917;28;20463;-45
2022/07/26 07:08:43;;;;;;;16.45;5.95;;;;;;;18.94;75.20;101418.13;5094829;28;20032;-44
2022/07/26 07:11:08;;;;;;;22.48;5.30;;;;;;;19.04;73.99;101430.34;5095512;28;20479;-44
2022/07/26 07:13:34;;;;;;;12.77;4.78;;;;;;;19.02;73.87;101432.06;5095668;28;20374;-45
2022/07/26 07:15:59;;;;;;;16.70;5.50;;;;;;;19.11;73.60;101436.47;5094440;28;20020;-46
2022/07/26 07:18:24;;;;;;;16.25;4.68;;;;;;;19.06;73.46;101428.59;5095741;28;20052;-45
2022/07/26 07:20:49;;;;;;;15.82;4.88;;;;;;;18.94;73.40;101432.91;5094631;28;20032;-46
2022/07/26 07:23:15;;;;;;;13.68;4.53;;;;;;;18.93;73.20;101437.28;5095369;28;20475;-45
2022/07/26 07:25:40;;;;;;;15.32;5.32;;;;;;;18.99;73.12;101429.47;5095283;28;20077;-45
2022/07/26 07:28:05;;;;;;;12.68;4.65;;;;;;;19.06;72.45;101431.22;5094532;28;20039;-45
2022/07/26 07:30:31;;;;;;;15.65;4.53;;;;;;;19.14;72.17;101436.47;5094975;28;20085;-47
2022/07/26 07:32:56;;;;;;;15.20;4.13;;;;;;;19.17;72.51;101439.09;5094921;28;20032;-45
2022/07/26 07:35:21;;;;;;;11.30;3.97;;;;;;;19.32;72.23;101440.88;5094778;28;20020;-45
2022/07/26 07:37:46;;;;;;;16.48;4.55;;;;;;;19.47;71.15;101433.94;5094756;28;20020;-47
2022/07/26 07:40:12;;;;;;;12.68;4.30;;;;;;;19.55;69.83;101440.06;5094930;28;20048;-48
2022/07/26 07:42:38;;;;;;;14.52;4.20;;;;;;;19.63;69.76;101437.47;5094381;28;20028;-44
2022/07/26 07:45:04;;;;;;;15.80;4.38;;;;;;;19.58;69.17;101443.53;5094630;28;20028;-46
2022/07/26 07:47:32;;;;;;;12.77;4.00;;;;;;;19.44;69.47;101447.88;5094951;28;20682;-49
2022/07/26 07:49:58;;;;;;;12.82;4.03;;;;;;;19.51;69.99;101441.81;5094036;28;20024;-44
2022/07/26 07:52:23;;;;;;;13.30;4.35;;;;;;;19.73;69.90;101457.53;5095060;28;20077;-49
2022/07/26 07:54:48;;;;;;;14.65;4.78;;;;;;;19.85;69.31;101448.84;5094575;28;20425;-46
2022/07/26 07:57:13;;;;;;;16.30;4.32;;;;;;;20.02;69.94;101441.00;5094062;28;20067;-47
2022/07/26 07:59:39;;;;;;;18.25;4.50;;;;;;;20.19;68.76;101446.22;5094367;28;20107;-45
2022/07/26 08:02:05;;;;;;;17.08;5.35;;;;;;;20.03;70.17;101446.22;5094715;28;20647;-48
2022/07/26 08:04:30;;;;;;;14.18;3.80;;;;;;;19.74;70.73;101456.63;5094132;28;20024;-48
2022/07/26 08:06:55;;;;;;;7.60;2.50;;;;;;;19.30;72.27;101467.88;5094518;28;20040;-49
2022/07/26 08:09:21;;;;;;;5.00;1.90;;;;;;;18.89;75.08;101474.66;5094596;28;20028;-49
2022/07/26 08:11:46;;;;;;;5.75;1.75;;;;;;;18.56;76.50;101476.19;5093495;28;20024;-47
2022/07/26 08:14:11;;;;;;;4.75;1.00;;;;;;;18.25;76.92;101473.34;5094381;28;20032;-47
2022/07/26 08:16:37;;;;;;;3.65;1.10;;;;;;;18.10;79.06;101480.22;5094412;28;20027;-49
2022/07/26 08:19:03;;;;;;;5.60;1.20;;;;;;;18.08;79.21;101487.13;5093517;28;20027;-50
2022/07/26 08:21:28;;;;;;;1.65;0.80;;;;;;;18.13;79.07;101484.56;5094334;28;20028;-48
2022/07/26 08:23:53;;;;;;;2.58;0.90;;;;;;;18.19;78.25;101483.75;5094126;28;20024;-47
2022/07/26 08:26:19;;;;;;;4.22;0.90;;;;;;;18.36;78.33;101476.94;5093440;28;20028;-44
2022/07/26 08:28:44;;;;;;;2.80;0.80;;;;;;;18.72;78.17;101483.25;5094075;28;20028;-45
2022/07/26 08:31:09;;;;;;;0.75;0.60;;;;;;;18.91;77.13;101494.72;5093462;28;20421;-44
2022/07/26 08:33:35;;;;;;;5.45;1.10;;;;;;;18.91;75.87;101497.34;5094015;28;20050;-44
2022/07/26 08:36:00;;;;;;;3.40;1.40;;;;;;;19.07;76.34;101497.41;5094030;28;20024;-48
2022/07/26 08:38:25;;;;;;;1.60;1.10;;;;;;;18.99;76.15;101494.78;5093579;28;20055;-45
2022/07/26 08:40:51;;;;;;;2.83;1.05;;;;;;;18.87;76.99;101505.09;5092455;28;20113;-45
2022/07/26 08:43:16;;;;;;;3.70;1.13;;;;;;;18.62;76.74;101510.19;5091625;28;20028;-44
2022/07/26 08:45:41;;;;;;;2.83;1.02;;;;;;;18.47;77.32;101510.06;5092469;28;20067;-44
2022/07/26 08:48:06;;;;;;;4.95;1.10;;;;;;;18.40;77.46;101515.22;5093164;28;20020;-44
2022/07/26 08:50:32;;;;;;;4.32;0.88;;;;;;;18.55;77.50;101516.19;5093354;28;20444;-45
2022/07/26 08:53:02;;;;;;;4.78;1.25;;;;;;;18.96;76.66;101518.25;5091307;28;20035;-46
2022/07/26 08:55:28;;;;;;;3.35;0.93;;;;;;;19.01;76.10;101518.28;5093608;28;20515;-49
2022/07/26 08:57:53;;;;;;;3.72;1.25;;;;;;;19.03;74.63;101522.66;5093251;28;20056;-47
2022/07/26 09:00:19;;;;;;;4.25;1.38;;;;;;;19.28;74.86;101527.97;5092907;28;20475;-44
2022/07/26 09:02:45;;;;;;;5.65;1.52;;;;;;;19.50;74.98;101517.63;5093645;28;20028;-45
2022/07/26 09:05:10;;;;;;;5.07;1.70;;;;;;;19.52;73.02;101519.38;5093372;28;20112;-49
2022/07/26 09:07:38;;;;;;;4.97;1.20;;;;;;;19.28;72.13;101532.34;5092811;28;20036;-48
2022/07/26 09:10:07;;;;;;;5.15;1.60;;;;;;;19.32;72.03;101532.34;5092945;28;20094;-47
2022/07/26 09:12:33;;;;;;;4.70;1.70;;;;;;;20.19;72.76;101535.22;5093335;28;20601;-45
2022/07/26 09:15:00;;;;;;;6.97;2.22;;;;;;;20.34;69.29;101539.59;5092504;28;20110;-48
2022/07/26 09:17:43;;;;;;;7.53;2.45;;;;;;;20.17;70.13;101545.69;5093473;28;20146;-46
2022/07/26 09:20:13;;;;;;;7.20;2.20;;;;;;;19.78;69.30;101546.44;5093161;28;20024;-47
2022/07/26 09:22:55;;;;;;;10.77;2.40;;;;;;;19.87;69.47;101543.88;5092409;28;20060;-46
2022/07/26 09:25:22;;;;;;;6.22;1.98;;;;;;;20.44;69.13;101541.34;5093424;28;20024;-46
2022/07/26 09:27:48;;;;;;;11.80;2.33;;;;;;;20.60;69.10;101546.56;5092593;28;20095;-47
2022/07/26 09:30:14;;;;;;;8.80;2.05;;;;;;;21.18;66.81;101541.22;5092898;28;20600;-47
2022/07/26 09:32:39;;;;;;;6.90;2.33;;;;;;;21.73;67.82;101546.25;5093055;28;20032;-44
2022/07/26 09:35:10;;;;;;;9.20;2.10;;;;;;;21.48;64.83;101554.22;5092018;28;20107;-45
2022/07/26 09:37:42;;;;;;;6.05;1.67;;;;;;;21.32;63.60;101556.03;5092925;28;20058;-44
2022/07/26 09:40:10;;;;;;;9.20;2.05;;;;;;;21.52;65.25;101558.56;5092522;28;20561;-44
2022/07/26 09:42:37;;;;;;;9.30;2.25;;;;;;;21.66;64.10;101555.91;5092116;28;20040;-44
2022/07/26 09:45:14;;;;;;;5.72;1.52;;;;;;;21.69;64.99;101564.63;5092832;28;20024;-45
2022/07/26 09:47:40;;;;;;;9.07;2.00;;;;;;;21.51;63.78;101559.44;5092969;28;20016;-48
2022/07/26 09:50:20;;;;;;;6.07;1.48;;;;;;;21.45;65.15;101569.97;5091881;28;20047;-46
2022/07/26 09:53:06;;;;;;;5.53;1.30;;;;;;;21.47;65.34;101569.09;5092519;28;20526;-49
2022/07/26 09:55:32;;;;;;;8.07;1.38;;;;;;;21.41;63.84;101565.59;5093041;28;20028;-45
2022/07/26 09:58:02;;;;;;;4.18;1.33;;;;;;;21.40;62.93;101567.34;5092147;28;20502;-49
2022/07/26 10:00:27;;;;;;;2.47;0.73;;;;;;;21.99;62.53;101567.97;5092636;28;20068;-45
2022/07/26 10:02:53;;;;;;;4.35;1.13;;;;;;;21.89;58.82;101573.28;5092207;28;20135;-48
2022/07/26 10:05:20;;;;;;;4.18;0.82;;;;;;;22.35;58.96;101575.59;5092732;28;20468;-47
2022/07/26 10:07:46;;;;;;;3.20;0.80;;;;;;;22.97;58.69;101575.94;5092464;28;20372;-46
2022/07/26 10:10:20;;;;;;;4.05;1.30;;;;;;;23.51;56.15;101574.44;5092044;28;20597;-49
2022/07/26 10:12:50;;;;;;;4.05;0.98;;;;;;;23.27;53.07;101578.28;5091082;28;20030;-46
2022/07/26 10:15:47;;;;;;;3.35;0.90;;;;;;;23.44;55.67;101578.06;5090809;28;20054;-44
2022/07/26 10:18:37;;;;;;;3.65;0.82;;;;;;;23.68;56.03;101582.16;5090930;28;20039;-49
2022/07/26 10:21:14;;;;;;;3.85;0.60;;;;;;;23.56;53.44;101585.78;5091807;28;20039;-50
2022/07/26 10:23:41;;;;;;;;;;;;;;;23.65;55.02;101588.31;5096006;28;20024;-45
2022/07/26 10:26:09;;;;;;;3.35;0.70;;;;;;;22.81;53.66;101591.00;5096335;28;19916;-45
2022/07/26 10:28:37;;;;;;;4.30;0.63;;;;;;;22.54;53.75;101589.47;5094619;28;20032;-46
2022/07/26 10:31:24;;;;;;;3.17;0.70;;;;;;;22.40;53.58;101591.34;5094521;28;20032;-49
2022/07/26 10:33:51;;;;;;;4.45;0.68;;;;;;;22.10;52.81;101590.66;5095347;28;20031;-48
2022/07/26 10:36:25;;;;;;;2.25;0.52;;;;;;;22.03;54.07;101598.53;5096002;28;20024;-45
2022/07/26 10:39:05;;;;;;;6.72;0.88;;;;;;;22.14;55.55;101585.38;5094692;28;20471;-48
2022/07/26 10:41:37;;;;;;;3.47;0.65;;;;;;;22.21;54.83;101591.44;5096189;28;20036;-45
2022/07/26 10:44:26;;;;;;;4.80;0.70;;;;;;;22.56;55.93;101600.84;5096101;28;20024;-44
2022/07/26 10:46:58;;;;;;;1.80;0.60;;;;;;;22.57;54.65;101596.44;5095318;28;20085;-46
2022/07/26 10:49:40;;;;;;;3.72;1.00;;;;;;;22.52;55.23;101604.38;5096215;28;20036;-47
2022/07/26 10:52:36;;;;;;;3.88;0.80;;;;;;;22.16;56.22;101603.75;5095477;28;20028;-45
2022/07/26 10:55:05;;;;;;;4.75;1.02;;;;;;;21.97;56.87;101601.22;5096026;28;20131;-44
2022/07/26 10:57:39;;;;;;;3.55;0.60;;;;;;;21.79;57.88;101610.03;5096091;28;20044;-48
2022/07/26 11:00:10;;;;;;;3.88;0.90;;;;;;;21.85;58.91;101611.78;5094954;28;20085;-49
2022/07/26 11:02:36;;;;;;;2.55;0.70;;;;;;;22.17;58.51;101613.34;5095928;28;20028;-50
2022/07/26 11:05:11;;;;;;;5.45;1.00;;;;;;;22.36;59.12;101620.25;5095425;28;20026;-47
2022/07/26 11:07:55;;;;;;;5.10;1.20;;;;;;;22.08;58.67;101616.00;5095039;28;20077;-49
2022/07/26 11:10:43;;;;;;;5.70;1.10;;;;;;;22.04;58.93;101629.19;5095866;28;20070;-46
2022/07/26 11:13:17;;;;;;;4.85;0.90;;;;;;;21.63;60.00;101624.13;5084857;28;20032;-45
2022/07/26 11:16:01;;;;;;;4.57;1.10;;;;;;;21.23;60.53;101638.22;5095400;28;20020;-48
2022/07/26 11:18:31;;;;;;;4.63;1.35;;;;;;;20.63;64.11;101648.69;5095619;28;20027;-46